Terminal Aerodrome Forecast
Issued by NWS Melbourne, FL

Home | Current Version | Previous Version | Text Only | Print | Product List | Glossary On
Versions: 1 2 3 4 5 6 7 8 9 10 11 12 13 14 15 16
000
FTUS42 KMLB 182342
TAFVRB
TAF
KVRB 182342Z 1900/1924 05013G20KT P6SM VCSH SCT030 BKN040
     FM190200 05012KT P6SM FEW050 SCT250
     FM191500 04011KT P6SM SCT020 BKN040
     FM192000 04012G19KT P6SM VCSH SCT040 BKN100=

USA.gov is the U.S. government's official web portal to all federal, state and local government web resources and services.